createdAt,value
2018-07-21T00:04:21.344Z,21.49
2018-07-21T00:09:13.898Z,21.41
2018-07-21T00:14:06.485Z,21.33
2018-07-21T00:18:58.984Z,21.21
2018-07-21T00:23:51.571Z,21.13
2018-07-21T00:28:44.045Z,21.07
2018-07-21T00:33:36.602Z,20.98
2018-07-21T00:38:29.215Z,20.87
2018-07-21T00:43:21.773Z,20.81
2018-07-21T00:48:14.304Z,20.76
2018-07-21T00:53:06.896Z,20.70
2018-07-21T00:57:59.468Z,20.67
2018-07-21T01:02:52.065Z,20.60
2018-07-21T01:07:44.622Z,20.51
2018-07-21T01:12:37.439Z,20.41
2018-07-21T01:17:29.984Z,20.30
2018-07-21T01:22:22.630Z,20.27
2018-07-21T01:27:15.255Z,20.21
2018-07-21T01:32:07.840Z,20.15
2018-07-21T01:37:00.365Z,20.11
2018-07-21T01:41:52.974Z,20.05
2018-07-21T01:46:45.510Z,20.00
2018-07-21T01:51:38.101Z,19.93
2018-07-21T01:56:30.714Z,19.87
2018-07-21T02:01:23.209Z,19.80
2018-07-21T02:06:15.942Z,19.74
2018-07-21T02:11:08.482Z,19.69
2018-07-21T02:16:01.010Z,19.62
2018-07-21T02:20:53.566Z,19.54
2018-07-21T02:25:46.142Z,19.50
2018-07-21T02:30:38.704Z,19.42
2018-07-21T02:35:31.332Z,19.41
2018-07-21T02:40:23.925Z,19.36
2018-07-21T02:45:16.470Z,19.31
2018-07-21T02:50:09.022Z,19.23
2018-07-21T02:55:01.605Z,19.20
2018-07-21T02:59:54.158Z,19.18
2018-07-21T03:04:46.681Z,19.10
2018-07-21T03:09:39.230Z,19.01
2018-07-21T03:14:31.821Z,18.93
2018-07-21T03:19:24.370Z,18.88
2018-07-21T03:24:16.930Z,18.85
2018-07-21T03:29:09.523Z,18.80
2018-07-21T03:34:02.075Z,18.76
2018-07-21T03:38:54.651Z,18.74
2018-07-21T03:43:47.164Z,18.76
2018-07-21T03:48:39.729Z,18.77
2018-07-21T03:53:32.353Z,18.78
2018-07-21T03:58:24.894Z,18.83
2018-07-21T04:03:17.451Z,18.85
2018-07-21T04:08:09.981Z,18.85
2018-07-21T04:13:02.538Z,18.84
2018-07-21T04:17:55.107Z,18.83
2018-07-21T04:22:47.703Z,18.81
2018-07-21T04:27:40.251Z,18.79
2018-07-21T04:32:32.885Z,18.77
2018-07-21T04:37:25.459Z,18.78
2018-07-21T04:42:18.018Z,18.79
2018-07-21T04:47:10.996Z,18.83
2018-07-21T04:52:03.558Z,18.85
2018-07-21T04:56:56.142Z,18.89
2018-07-21T05:01:48.840Z,18.94
2018-07-21T05:06:41.428Z,19.02
2018-07-21T05:11:34.063Z,19.08
2018-07-21T05:16:26.679Z,19.16
2018-07-21T05:21:19.315Z,19.24
2018-07-21T05:26:11.893Z,19.31
2018-07-21T05:31:04.429Z,19.37
2018-07-21T05:35:56.970Z,19.46
2018-07-21T05:40:49.861Z,19.55
2018-07-21T05:45:42.422Z,19.67
2018-07-21T05:50:34.950Z,19.76
2018-07-21T05:55:27.518Z,19.86
2018-07-21T06:00:20.063Z,19.96
2018-07-21T06:05:12.653Z,20.07
2018-07-21T06:10:05.193Z,20.17
2018-07-21T06:14:57.756Z,20.25
2018-07-21T06:19:50.363Z,20.37
2018-07-21T06:24:42.986Z,20.47
2018-07-21T06:29:35.537Z,20.58
2018-07-21T06:34:28.071Z,20.70
2018-07-21T06:39:20.732Z,20.83
2018-07-21T06:44:13.272Z,20.97
2018-07-21T06:49:05.773Z,21.12
2018-07-21T06:53:58.296Z,21.29
2018-07-21T06:58:50.969Z,21.47
2018-07-21T07:03:43.506Z,21.64
2018-07-21T07:08:36.050Z,21.79
2018-07-21T07:13:28.565Z,21.93
2018-07-21T07:18:21.147Z,22.13
2018-07-21T07:23:13.698Z,22.75
2018-07-21T07:28:06.250Z,24.40
2018-07-21T07:32:58.779Z,26.07
2018-07-21T07:37:51.417Z,27.35
2018-07-21T07:42:44.012Z,28.16
2018-07-21T07:47:36.594Z,28.81
2018-07-21T07:52:29.271Z,29.34
2018-07-21T07:57:21.911Z,29.74
2018-07-21T08:02:14.586Z,30.01
2018-07-21T08:07:07.264Z,30.23
2018-07-21T08:11:59.824Z,30.34
2018-07-21T08:16:52.438Z,30.29
2018-07-21T08:21:45.196Z,30.27
2018-07-21T08:26:37.762Z,30.22
2018-07-21T08:31:30.305Z,30.20
2018-07-21T08:36:23.072Z,30.10
2018-07-21T08:41:15.639Z,29.97
2018-07-21T08:46:08.145Z,29.68
2018-07-21T08:51:00.727Z,29.32
2018-07-21T08:55:53.431Z,29.11
2018-07-21T09:00:45.886Z,28.99
2018-07-21T09:05:38.445Z,28.87
2018-07-21T09:10:31.062Z,28.79
2018-07-21T09:15:23.721Z,28.74
2018-07-21T09:20:16.348Z,28.78
2018-07-21T09:25:09.007Z,28.79
2018-07-21T09:30:01.574Z,28.81
2018-07-21T09:34:54.180Z,28.64
2018-07-21T09:39:46.690Z,28.60
2018-07-21T09:44:39.254Z,28.61
2018-07-21T09:49:31.916Z,28.70
2018-07-21T09:54:24.630Z,28.75
2018-07-21T09:59:17.287Z,28.84
2018-07-21T10:04:09.810Z,28.91
2018-07-21T10:09:02.493Z,28.94
2018-07-21T10:13:55.134Z,28.86
2018-07-21T10:18:47.726Z,29.03
2018-07-21T10:23:40.361Z,29.13
2018-07-21T10:28:38.853Z,29.32
2018-07-21T10:33:31.425Z,29.38
2018-07-21T10:38:24.046Z,29.31
2018-07-21T10:43:16.570Z,29.38
2018-07-21T10:48:09.290Z,29.44
2018-07-21T10:53:01.810Z,29.56
2018-07-21T10:57:54.433Z,29.67
2018-07-21T11:02:47.020Z,29.71
2018-07-21T11:07:39.544Z,29.76
2018-07-21T11:12:32.167Z,29.85
2018-07-21T11:17:24.767Z,29.89
2018-07-21T11:22:17.361Z,29.92
2018-07-21T11:27:09.898Z,29.84
2018-07-21T11:32:02.530Z,29.73
2018-07-21T11:36:55.074Z,29.57
2018-07-21T11:41:47.586Z,29.49
2018-07-21T11:46:40.135Z,29.45
2018-07-21T11:51:32.729Z,29.53
2018-07-21T11:56:25.314Z,29.76
2018-07-21T12:01:17.880Z,29.99
2018-07-21T12:06:10.504Z,30.05
2018-07-21T12:11:03.038Z,30.16
2018-07-21T12:15:55.539Z,30.03
2018-07-21T12:20:48.164Z,29.88
2018-07-21T12:25:40.716Z,29.98
2018-07-21T12:30:33.322Z,30.24
2018-07-21T12:35:25.829Z,30.47
2018-07-21T12:40:18.326Z,30.73
2018-07-21T12:45:10.915Z,30.77
2018-07-21T12:50:03.524Z,30.66
2018-07-21T12:54:56.098Z,30.58
2018-07-21T12:59:48.676Z,30.64
2018-07-21T13:04:41.271Z,30.57
2018-07-21T13:09:33.880Z,30.63
2018-07-21T13:14:26.470Z,30.67
2018-07-21T13:19:19.042Z,30.70
2018-07-21T13:24:11.784Z,30.76
2018-07-21T13:29:04.399Z,30.93
2018-07-21T13:33:56.947Z,30.97
2018-07-21T13:38:49.514Z,31.05
2018-07-21T13:43:43.080Z,31.22
2018-07-21T13:48:35.743Z,31.37
2018-07-21T13:53:28.288Z,31.50
2018-07-21T13:58:21.055Z,31.50
2018-07-21T14:03:13.627Z,31.54
2018-07-21T14:08:06.186Z,31.50
2018-07-21T14:12:58.759Z,31.38
2018-07-21T14:17:51.323Z,31.29
2018-07-21T14:22:43.987Z,31.34
2018-07-21T14:27:36.654Z,31.33
2018-07-21T14:32:29.190Z,31.26
2018-07-21T14:37:21.778Z,31.24
2018-07-21T14:42:14.350Z,31.15
2018-07-21T14:47:06.930Z,31.11
2018-07-21T14:51:59.556Z,31.01
2018-07-21T14:56:52.148Z,31.00
2018-07-21T15:01:44.866Z,31.05
2018-07-21T15:06:37.367Z,31.05
2018-07-21T15:11:29.911Z,30.79
2018-07-21T15:16:22.501Z,30.53
2018-07-21T15:21:15.102Z,30.31
2018-07-21T15:26:07.712Z,30.11
2018-07-21T15:31:00.590Z,30.00
2018-07-21T15:35:53.133Z,29.90
2018-07-21T15:40:45.703Z,29.79
2018-07-21T15:45:38.367Z,29.69
2018-07-21T15:50:30.934Z,29.66
2018-07-21T15:55:23.506Z,29.62
2018-07-21T16:00:16.075Z,29.56
2018-07-21T16:05:08.694Z,29.47
2018-07-21T16:10:01.333Z,29.39
2018-07-21T16:14:54.030Z,29.34
2018-07-21T16:19:46.685Z,29.30
2018-07-21T16:24:39.266Z,29.24
2018-07-21T16:29:31.864Z,29.18
2018-07-21T16:34:24.456Z,29.12
2018-07-21T16:39:17.025Z,29.08
2018-07-21T16:44:09.853Z,29.04
2018-07-21T16:49:02.426Z,29.03
2018-07-21T16:53:55.023Z,28.98
2018-07-21T16:58:47.693Z,28.95
2018-07-21T17:03:40.274Z,28.94
2018-07-21T17:08:33.140Z,28.89
2018-07-21T17:13:25.716Z,28.84
2018-07-21T17:18:18.409Z,28.77
2018-07-21T17:23:10.958Z,28.70
2018-07-21T17:28:03.715Z,28.65
2018-07-21T17:32:56.235Z,28.61
2018-07-21T17:37:48.759Z,28.55
2018-07-21T17:42:41.421Z,28.51
2018-07-21T17:47:33.942Z,28.46
2018-07-21T17:52:26.526Z,28.40
2018-07-21T17:57:19.222Z,28.38
2018-07-21T18:02:11.790Z,28.32
2018-07-21T18:07:04.472Z,28.24
2018-07-21T18:11:57.142Z,28.20
2018-07-21T18:16:49.972Z,28.16
2018-07-21T18:21:42.618Z,28.09
2018-07-21T18:26:35.293Z,28.06
2018-07-21T18:31:27.939Z,27.98
2018-07-21T18:36:20.687Z,27.92
2018-07-21T18:41:13.251Z,27.85
2018-07-21T18:46:06.062Z,27.77
2018-07-21T18:50:58.608Z,27.69
2018-07-21T18:55:51.145Z,27.60
2018-07-21T19:00:43.792Z,27.52
2018-07-21T19:05:36.320Z,27.43
2018-07-21T19:10:28.854Z,27.37
2018-07-21T19:15:27.083Z,27.28
2018-07-21T19:20:25.409Z,27.17
2018-07-21T19:25:23.777Z,27.10
2018-07-21T19:30:16.370Z,27.04
2018-07-21T19:35:09.055Z,26.94
2018-07-21T19:40:01.770Z,26.84
2018-07-21T19:44:54.351Z,26.75
2018-07-21T19:49:46.895Z,26.69
2018-07-21T19:54:39.418Z,26.60
2018-07-21T19:59:32.106Z,26.52
2018-07-21T20:04:24.830Z,26.43
2018-07-21T20:09:17.433Z,26.39
2018-07-21T20:14:09.981Z,26.35
2018-07-21T20:19:02.611Z,26.15
2018-07-21T20:23:55.439Z,25.97
2018-07-21T20:28:48.035Z,25.88
2018-07-21T20:33:40.586Z,25.78
2018-07-21T20:38:33.344Z,25.73
2018-07-21T20:43:25.971Z,25.66
2018-07-21T20:48:18.563Z,25.59
2018-07-21T20:53:11.135Z,25.60
2018-07-21T20:58:03.798Z,25.60
2018-07-21T21:02:56.351Z,25.52
2018-07-21T21:07:49.022Z,25.45
2018-07-21T21:12:41.691Z,25.37
2018-07-21T21:17:34.241Z,25.34
2018-07-21T21:22:26.851Z,25.27
2018-07-21T21:27:19.454Z,25.20
2018-07-21T21:32:12.166Z,25.18
2018-07-21T21:37:04.766Z,25.13
2018-07-21T21:41:57.491Z,25.08
2018-07-21T21:46:49.989Z,25.00
2018-07-21T21:51:42.811Z,24.91
2018-07-21T21:56:35.423Z,24.85
2018-07-21T22:01:28.259Z,24.81
2018-07-21T22:06:20.803Z,24.74
2018-07-21T22:11:13.368Z,24.65
2018-07-21T22:16:06.098Z,24.57
2018-07-21T22:20:58.731Z,24.50
2018-07-21T22:25:51.294Z,24.47
2018-07-21T22:30:43.958Z,24.43
2018-07-21T22:35:36.550Z,24.35
2018-07-21T22:40:29.110Z,24.30
2018-07-21T22:45:21.634Z,24.26
2018-07-21T22:50:14.279Z,24.21
2018-07-21T22:55:06.825Z,24.16
2018-07-21T22:59:59.519Z,24.13
2018-07-21T23:04:52.097Z,24.07
2018-07-21T23:09:44.686Z,23.99
2018-07-21T23:14:37.258Z,23.95
2018-07-21T23:19:29.838Z,23.90
2018-07-21T23:24:22.553Z,23.86
2018-07-21T23:29:15.095Z,23.84
2018-07-21T23:34:07.671Z,23.80
2018-07-21T23:39:00.238Z,23.77
2018-07-21T23:43:52.820Z,23.72
2018-07-21T23:48:45.362Z,23.65
2018-07-21T23:53:37.950Z,23.62
2018-07-21T23:58:30.494Z,23.58
